createdAt,value
2018-07-19T00:01:27.770Z,2.97
2018-07-19T00:03:56.934Z,3.30
2018-07-19T00:06:26.077Z,3.33
2018-07-19T00:08:54.951Z,3.37
2018-07-19T00:11:24.023Z,3.10
2018-07-19T00:13:52.985Z,3.77
2018-07-19T00:16:21.989Z,4.03
2018-07-19T00:18:50.909Z,3.37
2018-07-19T00:21:19.827Z,3.73
2018-07-19T00:23:48.697Z,3.67
2018-07-19T00:26:17.649Z,3.73
2018-07-19T00:28:46.538Z,3.70
2018-07-19T00:31:15.407Z,3.60
2018-07-19T00:33:44.350Z,3.37
2018-07-19T00:36:13.268Z,3.40
2018-07-19T00:38:42.168Z,3.40
2018-07-19T00:41:11.299Z,3.00
2018-07-19T00:43:40.282Z,3.23
2018-07-19T00:46:09.171Z,3.33
2018-07-19T00:48:38.268Z,3.30
2018-07-19T00:51:07.348Z,3.07
2018-07-19T00:53:36.400Z,3.27
2018-07-19T00:56:05.384Z,3.60
2018-07-19T00:58:34.428Z,3.27
2018-07-19T01:01:03.331Z,3.40
2018-07-19T01:03:32.233Z,2.93
2018-07-19T01:06:01.119Z,3.57
2018-07-19T01:08:30.016Z,3.80
2018-07-19T01:10:59.000Z,3.47
2018-07-19T01:13:27.864Z,3.77
2018-07-19T01:15:56.775Z,3.40
2018-07-19T01:18:25.708Z,3.63
2018-07-19T01:20:54.676Z,3.90
2018-07-19T01:23:23.584Z,3.60
2018-07-19T01:25:52.651Z,3.90
2018-07-19T01:28:21.667Z,3.77
2018-07-19T01:30:50.329Z,4.20
2018-07-19T01:33:19.423Z,4.50
2018-07-19T01:35:48.311Z,4.67
2018-07-19T01:38:17.212Z,4.50
2018-07-19T01:40:46.176Z,4.40
2018-07-19T01:43:15.068Z,4.57
2018-07-19T01:45:43.962Z,4.47
2018-07-19T01:48:12.868Z,3.63
2018-07-19T01:50:41.775Z,3.80
2018-07-19T01:53:10.783Z,3.83
2018-07-19T01:55:39.750Z,3.50
2018-07-19T01:58:08.672Z,4.43
2018-07-19T02:00:37.580Z,3.80
2018-07-19T02:03:06.455Z,3.63
2018-07-19T02:05:35.348Z,3.77
2018-07-19T02:08:04.410Z,4.60
2018-07-19T02:10:33.693Z,3.80
2018-07-19T02:13:02.372Z,4.03
2018-07-19T02:15:31.059Z,4.10
2018-07-19T02:18:00.068Z,4.47
2018-07-19T02:20:29.027Z,4.10
2018-07-19T02:22:57.963Z,4.37
2018-07-19T02:25:26.844Z,4.20
2018-07-19T02:27:55.738Z,4.60
2018-07-19T02:30:24.655Z,4.23
2018-07-19T02:32:53.542Z,3.87
2018-07-19T02:35:22.441Z,4.10
2018-07-19T02:37:51.319Z,4.70
2018-07-19T02:40:20.206Z,4.57
2018-07-19T02:42:49.080Z,4.57
2018-07-19T02:45:18.034Z,5.00
2018-07-19T02:47:46.907Z,4.40
2018-07-19T02:50:15.836Z,4.37
2018-07-19T02:52:44.756Z,4.10
2018-07-19T02:55:13.680Z,4.60
2018-07-19T02:57:42.591Z,4.13
2018-07-19T03:00:11.623Z,3.70
2018-07-19T03:02:40.557Z,3.90
2018-07-19T03:05:09.899Z,4.50
2018-07-19T03:07:38.924Z,4.97
2018-07-19T03:10:07.936Z,4.00
2018-07-19T03:12:36.826Z,3.70
2018-07-19T03:15:06.266Z,3.93
2018-07-19T03:17:35.222Z,4.60
2018-07-19T03:20:04.434Z,4.40
2018-07-19T03:22:33.330Z,4.13
2018-07-19T03:25:02.272Z,4.07
2018-07-19T03:27:31.137Z,4.20
2018-07-19T03:30:00.201Z,4.07
2018-07-19T03:32:29.154Z,4.60
2018-07-19T03:34:58.121Z,4.03
2018-07-19T03:37:27.059Z,4.20
2018-07-19T03:39:55.944Z,4.20
2018-07-19T03:42:24.880Z,3.73
2018-07-19T03:44:54.092Z,3.90
2018-07-19T03:47:23.025Z,4.47
2018-07-19T03:49:51.939Z,4.03
2018-07-19T03:52:20.984Z,4.40
2018-07-19T03:54:49.967Z,4.27
2018-07-19T03:57:18.847Z,4.60
2018-07-19T03:59:47.728Z,4.10
2018-07-19T04:02:16.641Z,4.00
2018-07-19T04:04:45.554Z,4.70
2018-07-19T04:07:14.500Z,4.10
2018-07-19T04:09:43.360Z,4.80
2018-07-19T04:12:13.935Z,3.93
2018-07-19T04:14:42.966Z,4.40
2018-07-19T04:17:11.692Z,4.43
2018-07-19T04:19:40.300Z,5.00
2018-07-19T04:22:09.179Z,5.00
2018-07-19T04:24:38.438Z,4.77
2018-07-19T04:27:07.196Z,5.80
2018-07-19T04:29:36.032Z,5.80
2018-07-19T04:32:05.078Z,4.77
2018-07-19T04:34:34.333Z,5.60
2018-07-19T04:37:03.225Z,5.60
2018-07-19T04:39:32.352Z,6.00
2018-07-19T04:42:01.256Z,6.33
2018-07-19T04:44:31.364Z,5.60
2018-07-19T04:47:00.429Z,5.00
2018-07-19T04:49:29.328Z,4.97
2018-07-19T04:51:58.244Z,5.53
2018-07-19T04:54:27.442Z,6.90
2018-07-19T04:56:56.348Z,5.47
2018-07-19T04:59:25.365Z,6.00
2018-07-19T05:01:54.474Z,6.63
2018-07-19T05:04:23.325Z,6.87
2018-07-19T05:06:52.258Z,6.03
2018-07-19T05:09:21.171Z,5.93
2018-07-19T05:11:50.167Z,5.60
2018-07-19T05:14:19.167Z,6.47
2018-07-19T05:16:48.112Z,5.87
2018-07-19T05:19:16.965Z,4.53
2018-07-19T05:21:45.899Z,6.37
2018-07-19T05:24:14.996Z,6.50
2018-07-19T05:26:43.956Z,5.00
2018-07-19T05:29:12.823Z,5.57
2018-07-19T05:31:41.768Z,6.67
2018-07-19T05:34:10.657Z,5.17
2018-07-19T05:36:39.893Z,6.13
2018-07-19T05:39:08.811Z,5.43
2018-07-19T05:41:37.731Z,5.70
2018-07-19T05:44:06.699Z,6.47
2018-07-19T05:46:35.753Z,5.90
2018-07-19T05:49:05.247Z,7.20
2018-07-19T05:51:34.503Z,5.53
2018-07-19T05:54:03.415Z,5.87
2018-07-19T05:56:32.336Z,5.87
2018-07-19T05:59:01.265Z,6.40
2018-07-19T06:01:30.273Z,6.43
2018-07-19T06:03:59.179Z,5.70
2018-07-19T06:06:28.072Z,6.03
2018-07-19T06:08:57.209Z,6.80
2018-07-19T06:11:25.899Z,7.43
2018-07-19T06:13:54.417Z,6.63
2018-07-19T06:16:23.211Z,5.17
2018-07-19T06:18:52.369Z,7.00
2018-07-19T06:21:21.280Z,7.43
2018-07-19T06:23:50.192Z,7.07
2018-07-19T06:26:18.979Z,6.63
2018-07-19T06:28:47.676Z,7.07
2018-07-19T06:31:16.590Z,6.33
2018-07-19T06:33:45.460Z,6.47
2018-07-19T06:36:14.347Z,6.90
2018-07-19T06:38:43.268Z,5.37
2018-07-19T06:41:12.181Z,6.13
2018-07-19T06:43:41.105Z,5.87
2018-07-19T06:46:10.024Z,6.60
2018-07-19T06:48:38.979Z,5.93
2018-07-19T06:51:07.892Z,6.60
2018-07-19T06:53:36.967Z,7.03
2018-07-19T06:56:05.948Z,6.80
2018-07-19T06:58:34.907Z,6.60
2018-07-19T07:01:03.813Z,8.60
2018-07-19T07:03:32.858Z,8.87
2018-07-19T07:06:01.800Z,6.60
2018-07-19T07:08:30.951Z,7.37
2018-07-19T07:10:59.854Z,6.90
2018-07-19T07:13:28.820Z,6.93
2018-07-19T07:15:57.978Z,7.27
2018-07-19T07:18:26.879Z,7.90
2018-07-19T07:20:55.771Z,7.37
2018-07-19T07:23:24.980Z,7.10
2018-07-19T07:25:54.211Z,7.13
2018-07-19T07:28:23.489Z,6.33
2018-07-19T07:30:53.259Z,6.03
2018-07-19T07:33:22.158Z,5.63
2018-07-19T07:35:51.159Z,6.07
2018-07-19T07:38:20.122Z,6.37
2018-07-19T07:40:49.047Z,6.03
2018-07-19T07:43:18.148Z,5.83
2018-07-19T07:45:47.044Z,5.93
2018-07-19T07:48:15.940Z,5.23
2018-07-19T07:50:44.958Z,5.13
2018-07-19T07:53:13.912Z,4.97
2018-07-19T07:55:42.801Z,5.03
2018-07-19T07:58:12.808Z,5.27
2018-07-19T08:00:41.788Z,5.87
2018-07-19T08:03:10.760Z,4.80
2018-07-19T08:05:39.704Z,4.60
2018-07-19T08:08:08.584Z,6.60
2018-07-19T08:10:37.695Z,5.90
2018-07-19T08:13:06.683Z,6.67
2018-07-19T08:15:35.769Z,6.80
2018-07-19T08:18:04.553Z,6.70
2018-07-19T08:20:33.544Z,6.40
2018-07-19T08:23:02.637Z,6.87
2018-07-19T08:25:32.292Z,7.87
2018-07-19T08:28:01.193Z,6.10
2018-07-19T08:30:30.088Z,7.80
2018-07-19T08:32:59.134Z,6.60
2018-07-19T08:35:28.267Z,6.30
2018-07-19T08:37:57.355Z,7.20
2018-07-19T08:40:26.455Z,7.17
2018-07-19T08:42:55.355Z,6.73
2018-07-19T08:45:24.259Z,6.43
2018-07-19T08:47:53.160Z,6.90
2018-07-19T08:50:22.140Z,7.00
2018-07-19T08:52:51.037Z,6.60
2018-07-19T08:55:20.482Z,6.33
2018-07-19T08:57:49.154Z,5.47
2018-07-19T09:00:18.280Z,7.00
2018-07-19T09:02:47.229Z,6.40
2018-07-19T09:05:16.155Z,6.50
2018-07-19T09:07:45.084Z,6.83
2018-07-19T09:10:14.413Z,6.43
2018-07-19T09:12:43.456Z,5.40
2018-07-19T09:15:12.403Z,5.70
2018-07-19T09:17:41.327Z,5.37
2018-07-19T09:20:10.334Z,5.17
2018-07-19T09:22:39.299Z,5.00
2018-07-19T09:25:08.267Z,4.00
2018-07-19T09:27:37.170Z,4.80
2018-07-19T09:30:06.689Z,4.43
2018-07-19T09:32:35.735Z,5.03
2018-07-19T09:35:04.694Z,5.00
2018-07-19T09:37:33.900Z,4.63
2018-07-19T09:40:03.328Z,4.70
2018-07-19T09:42:32.241Z,4.07
2018-07-19T09:45:01.110Z,4.50
2018-07-19T09:47:29.976Z,4.23
2018-07-19T09:49:59.127Z,4.40
2018-07-19T09:52:28.071Z,3.93
2018-07-19T09:54:57.545Z,3.87
2018-07-19T09:57:26.638Z,3.90
2018-07-19T09:59:55.860Z,4.33
2018-07-19T10:02:24.748Z,3.50
2018-07-19T10:04:53.770Z,3.50
2018-07-19T10:07:22.617Z,3.90
2018-07-19T10:09:51.552Z,3.10
2018-07-19T10:12:20.431Z,3.40
2018-07-19T10:14:49.332Z,3.70
2018-07-19T10:17:18.315Z,3.70
2018-07-19T10:19:47.120Z,3.63
2018-07-19T10:22:16.685Z,4.10
2018-07-19T10:24:45.609Z,3.90
2018-07-19T10:27:14.497Z,4.40
2018-07-19T10:29:43.356Z,3.37
2018-07-19T10:32:12.382Z,3.40
2018-07-19T10:34:41.132Z,3.70
2018-07-19T10:37:10.109Z,3.27
2018-07-19T10:39:39.323Z,4.20
2018-07-19T10:42:08.825Z,3.73
2018-07-19T10:44:37.805Z,3.60
2018-07-19T10:47:06.718Z,3.93
2018-07-19T10:49:35.568Z,3.57
2018-07-19T10:52:04.765Z,4.17
2018-07-19T10:54:33.774Z,4.07
2018-07-19T10:57:02.660Z,4.10
2018-07-19T10:59:31.532Z,4.13
2018-07-19T11:02:00.451Z,3.43
2018-07-19T11:04:29.406Z,4.00
2018-07-19T11:06:58.467Z,4.03
2018-07-19T11:09:27.355Z,4.07
2018-07-19T11:11:56.309Z,3.77
2018-07-19T11:14:25.167Z,4.20
2018-07-19T11:16:54.318Z,4.07
2018-07-19T11:19:23.279Z,4.53
2018-07-19T11:21:52.223Z,3.73
2018-07-19T11:24:21.126Z,3.87
2018-07-19T11:26:50.092Z,4.00
2018-07-19T11:29:19.040Z,3.93
2018-07-19T11:31:48.273Z,4.33
2018-07-19T11:34:17.231Z,3.90
2018-07-19T11:36:46.139Z,3.60
2018-07-19T11:39:14.975Z,4.50
2018-07-19T11:41:44.562Z,4.30
2018-07-19T11:44:13.495Z,4.63
2018-07-19T11:46:43.518Z,3.10
2018-07-19T11:49:12.668Z,4.03
2018-07-19T11:51:44.376Z,4.00
2018-07-19T11:54:13.413Z,3.50
2018-07-19T11:56:42.274Z,4.13
2018-07-19T11:59:11.533Z,4.40
2018-07-19T12:01:40.621Z,4.00
2018-07-19T12:04:10.649Z,4.00
2018-07-19T12:06:39.612Z,4.47
2018-07-19T12:09:08.445Z,4.67
2018-07-19T12:11:37.245Z,4.40
2018-07-19T12:14:06.300Z,3.93
2018-07-19T12:16:35.316Z,4.17
2018-07-19T12:19:04.542Z,4.70
2018-07-19T12:21:33.412Z,4.27
2018-07-19T12:24:02.298Z,4.30
2018-07-19T12:26:31.220Z,5.37
2018-07-19T12:29:00.264Z,4.07
2018-07-19T12:31:29.321Z,4.33
2018-07-19T12:33:58.479Z,3.80
2018-07-19T12:36:27.562Z,4.13
2018-07-19T12:38:56.595Z,4.27
2018-07-19T12:41:25.748Z,4.10
2018-07-19T12:43:54.619Z,4.17
2018-07-19T12:46:23.679Z,3.80
2018-07-19T12:48:52.585Z,3.73
2018-07-19T12:51:21.476Z,3.50
2018-07-19T12:53:50.583Z,4.30
2018-07-19T12:56:19.588Z,4.13
2018-07-19T12:58:49.260Z,4.20
2018-07-19T13:01:18.247Z,4.50
2018-07-19T13:03:47.535Z,3.87
2018-07-19T13:06:16.419Z,4.03
2018-07-19T13:08:45.245Z,4.40
2018-07-19T13:11:14.117Z,4.10
2018-07-19T13:13:43.400Z,3.73
2018-07-19T13:16:12.932Z,3.93
2018-07-19T13:18:41.789Z,3.80
2018-07-19T13:21:10.810Z,3.63
2018-07-19T13:23:40.002Z,3.70
2018-07-19T13:26:08.973Z,4.40
2018-07-19T13:28:38.003Z,4.03
2018-07-19T13:31:07.700Z,3.50
2018-07-19T13:33:36.530Z,4.00
2018-07-19T13:36:06.368Z,3.33
2018-07-19T13:38:35.075Z,3.90
2018-07-19T13:41:04.155Z,3.77
2018-07-19T13:43:33.091Z,4.40
2018-07-19T13:46:02.083Z,4.10
2018-07-19T13:48:32.132Z,4.00
2018-07-19T13:51:01.142Z,3.77
2018-07-19T13:53:41.207Z,3.73
2018-07-19T13:56:10.222Z,4.10
2018-07-19T13:58:40.108Z,4.60
2018-07-19T14:01:09.091Z,4.40
2018-07-19T14:03:37.943Z,3.70
2018-07-19T14:06:06.873Z,3.77
2018-07-19T14:08:35.716Z,3.80
2018-07-19T14:11:04.675Z,4.20
2018-07-19T14:13:33.560Z,4.17
2018-07-19T14:16:02.498Z,4.70
2018-07-19T14:18:31.384Z,4.03
2018-07-19T14:21:00.355Z,4.53
2018-07-19T14:23:29.259Z,4.73
2018-07-19T14:25:58.204Z,4.30
2018-07-19T14:28:27.093Z,4.07
2018-07-19T14:30:55.928Z,4.10
2018-07-19T14:33:25.044Z,4.10
2018-07-19T14:35:53.962Z,4.10
2018-07-19T14:38:23.043Z,4.30
2018-07-19T14:40:52.146Z,4.57
2018-07-19T14:43:21.554Z,4.57
2018-07-19T14:45:50.485Z,4.57
2018-07-19T14:48:19.620Z,5.20
2018-07-19T14:50:48.462Z,4.37
2018-07-19T14:53:17.332Z,4.10
2018-07-19T14:55:46.229Z,4.30
2018-07-19T14:58:15.383Z,4.80
2018-07-19T15:00:44.287Z,4.00
2018-07-19T15:03:13.492Z,3.87
2018-07-19T15:05:42.456Z,4.50
2018-07-19T15:08:11.379Z,4.17
2018-07-19T15:10:40.379Z,4.07
2018-07-19T15:13:09.287Z,4.00
2018-07-19T15:15:38.159Z,4.17
2018-07-19T15:18:07.131Z,4.07
2018-07-19T15:20:36.227Z,4.40
2018-07-19T15:23:05.412Z,4.00
2018-07-19T15:25:34.331Z,4.23
2018-07-19T15:28:03.261Z,4.83
2018-07-19T15:30:32.885Z,4.93
2018-07-19T15:33:01.947Z,3.80
2018-07-19T15:35:30.825Z,3.70
2018-07-19T15:37:59.880Z,4.53
2018-07-19T15:40:28.727Z,4.30
2018-07-19T15:42:58.244Z,4.10
2018-07-19T15:45:27.117Z,5.07
2018-07-19T15:47:56.004Z,4.10
2018-07-19T15:50:24.921Z,3.90
2018-07-19T15:52:53.816Z,4.73
2018-07-19T15:55:22.741Z,3.90
2018-07-19T15:57:51.632Z,4.10
2018-07-19T16:00:20.517Z,4.10
2018-07-19T16:02:49.374Z,3.53
2018-07-19T16:05:18.284Z,4.00
2018-07-19T16:07:47.147Z,3.47
2018-07-19T16:10:16.032Z,4.27
2018-07-19T16:12:45.082Z,3.83
2018-07-19T16:15:14.080Z,3.80
2018-07-19T16:17:43.059Z,3.97
2018-07-19T16:20:11.991Z,4.00
2018-07-19T16:22:40.640Z,3.70
2018-07-19T16:25:09.551Z,3.80
2018-07-19T16:27:38.797Z,4.20
2018-07-19T16:30:07.651Z,3.60
2018-07-19T16:32:36.579Z,3.90
2018-07-19T16:35:05.497Z,3.80
2018-07-19T16:37:34.874Z,3.40
2018-07-19T16:40:03.984Z,3.27
2018-07-19T16:42:33.072Z,3.60
2018-07-19T16:45:01.933Z,3.60
2018-07-19T16:47:30.899Z,3.43
2018-07-19T16:49:59.947Z,4.20
2018-07-19T16:52:28.824Z,3.70
2018-07-19T16:54:58.144Z,3.30
2018-07-19T16:57:27.090Z,3.70
2018-07-19T16:59:55.987Z,3.47
2018-07-19T17:02:25.132Z,3.43
2018-07-19T17:04:53.759Z,3.60
2018-07-19T17:07:22.562Z,3.83
2018-07-19T17:09:51.490Z,4.17
2018-07-19T17:12:20.432Z,3.63
2018-07-19T17:14:49.456Z,3.77
2018-07-19T17:17:18.167Z,3.77
2018-07-19T17:19:47.120Z,4.00
2018-07-19T17:22:15.749Z,4.17
2018-07-19T17:24:44.309Z,3.27
2018-07-19T17:27:14.851Z,3.90
2018-07-19T17:29:43.991Z,4.17
2018-07-19T17:32:12.876Z,3.60
2018-07-19T17:34:41.763Z,3.67
2018-07-19T17:37:10.965Z,3.40
2018-07-19T17:39:39.868Z,3.43
2018-07-19T17:42:08.800Z,4.00
2018-07-19T17:44:37.671Z,3.90
2018-07-19T17:47:06.785Z,3.50
2018-07-19T17:49:35.888Z,4.30
2018-07-19T17:52:05.073Z,3.50
2018-07-19T17:54:34.569Z,3.40
2018-07-19T17:57:03.504Z,3.70
2018-07-19T17:59:32.474Z,3.63
2018-07-19T18:02:01.424Z,3.50
2018-07-19T18:04:30.392Z,3.83
2018-07-19T18:06:59.335Z,3.83
2018-07-19T18:09:28.267Z,3.60
2018-07-19T18:11:57.252Z,3.90
2018-07-19T18:14:26.335Z,4.10
2018-07-19T18:16:55.260Z,3.87
2018-07-19T18:19:24.117Z,3.63
2018-07-19T18:21:53.083Z,4.30
2018-07-19T18:24:21.956Z,3.57
2018-07-19T18:26:50.859Z,3.63
2018-07-19T18:29:19.947Z,3.90
2018-07-19T18:31:48.855Z,3.70
2018-07-19T18:34:17.936Z,4.80
2018-07-19T18:36:46.831Z,4.33
2018-07-19T18:39:15.742Z,4.53
2018-07-19T18:41:44.736Z,4.50
2018-07-19T18:44:13.647Z,5.13
2018-07-19T18:46:42.604Z,4.77
2018-07-19T18:49:11.516Z,5.87
2018-07-19T18:51:41.084Z,6.17
2018-07-19T18:54:10.045Z,5.20
2018-07-19T18:56:38.953Z,6.10
2018-07-19T18:59:07.603Z,5.40
2018-07-19T19:01:36.469Z,5.80
2018-07-19T19:04:05.439Z,5.70
2018-07-19T19:06:34.221Z,5.43
2018-07-19T19:09:03.170Z,5.80
2018-07-19T19:11:32.300Z,5.37
2018-07-19T19:14:01.620Z,5.40
2018-07-19T19:16:30.252Z,4.90
2018-07-19T19:18:59.268Z,6.10
2018-07-19T19:21:28.376Z,5.93
2018-07-19T19:23:57.294Z,5.97
2018-07-19T19:26:26.238Z,5.43
2018-07-19T19:28:55.949Z,5.30
2018-07-19T19:31:25.013Z,5.77
2018-07-19T19:33:53.972Z,5.50
2018-07-19T19:36:23.174Z,5.77
2018-07-19T19:38:52.073Z,6.20
2018-07-19T19:41:21.056Z,4.70
2018-07-19T19:43:50.399Z,5.33
2018-07-19T19:46:19.757Z,5.80
2018-07-19T19:48:48.655Z,6.00
2018-07-19T19:51:17.667Z,6.47
2018-07-19T19:53:46.626Z,5.80
2018-07-19T19:56:15.575Z,6.30
2018-07-19T19:58:44.566Z,5.10
2018-07-19T20:01:13.526Z,6.00
2018-07-19T20:03:42.532Z,4.93
2018-07-19T20:06:12.338Z,5.17
2018-07-19T20:08:41.691Z,5.40
2018-07-19T20:11:10.812Z,5.60
2018-07-19T20:13:39.953Z,5.40
2018-07-19T20:16:08.859Z,5.80
2018-07-19T20:18:38.317Z,5.07
2018-07-19T20:21:07.175Z,4.80
2018-07-19T20:23:36.182Z,4.40
2018-07-19T20:26:05.130Z,4.23
2018-07-19T20:28:34.221Z,4.77
2018-07-19T20:31:03.125Z,4.50
2018-07-19T20:33:32.006Z,4.53
2018-07-19T20:36:01.168Z,4.33
2018-07-19T20:38:30.077Z,4.33
2018-07-19T20:40:59.019Z,4.50
2018-07-19T20:43:28.044Z,4.20
2018-07-19T20:45:56.961Z,4.27
2018-07-19T20:48:26.127Z,4.73
2018-07-19T20:50:55.135Z,4.43
2018-07-19T20:53:24.164Z,4.20
2018-07-19T20:55:53.196Z,4.10
2018-07-19T20:58:22.252Z,4.10
2018-07-19T21:00:51.228Z,4.30
2018-07-19T21:03:20.377Z,4.07
2018-07-19T21:05:49.267Z,3.90
2018-07-19T21:08:18.158Z,3.60
2018-07-19T21:10:47.032Z,3.70
2018-07-19T21:13:16.161Z,3.40
2018-07-19T21:15:45.039Z,3.70
2018-07-19T21:18:14.027Z,3.40
2018-07-19T21:20:42.859Z,3.90
2018-07-19T21:23:11.770Z,3.40
2018-07-19T21:25:40.646Z,3.37
2018-07-19T21:28:09.552Z,3.70
2018-07-19T21:30:38.665Z,3.60
2018-07-19T21:33:07.607Z,4.00
2018-07-19T21:35:36.531Z,3.27
2018-07-19T21:38:05.440Z,3.10
2018-07-19T21:40:34.416Z,3.33
2018-07-19T21:43:03.392Z,3.40
2018-07-19T21:45:32.279Z,3.40
2018-07-19T21:48:01.302Z,3.27
2018-07-19T21:50:30.186Z,3.30
2018-07-19T21:52:59.176Z,3.10
2018-07-19T21:55:28.136Z,3.27
2018-07-19T21:57:57.050Z,3.17
2018-07-19T22:00:26.155Z,3.27
2018-07-19T22:02:55.160Z,2.97
2018-07-19T22:05:24.316Z,3.60
2018-07-19T22:07:53.223Z,3.20
2018-07-19T22:10:22.302Z,3.00
2018-07-19T22:12:51.203Z,3.60
2018-07-19T22:15:20.125Z,2.80
2018-07-19T22:17:49.046Z,3.30
2018-07-19T22:20:18.098Z,3.37
2018-07-19T22:22:47.160Z,3.17
2018-07-19T22:25:16.063Z,3.07
2018-07-19T22:27:44.932Z,3.03
2018-07-19T22:30:13.919Z,2.60
2018-07-19T22:32:42.928Z,2.87
2018-07-19T22:35:11.895Z,2.97
2018-07-19T22:37:40.776Z,3.13
2018-07-19T22:40:09.647Z,3.00
2018-07-19T22:42:38.656Z,2.93
2018-07-19T22:45:07.567Z,2.67
2018-07-19T22:47:36.452Z,2.53
2018-07-19T22:50:05.548Z,3.10
2018-07-19T22:52:34.491Z,2.63
2018-07-19T22:55:03.510Z,2.80
2018-07-19T22:57:32.394Z,2.67
2018-07-19T23:00:01.281Z,2.50
2018-07-19T23:02:30.173Z,2.40
2018-07-19T23:04:59.058Z,2.60
2018-07-19T23:07:27.946Z,2.90
2018-07-19T23:09:56.839Z,2.47
2018-07-19T23:12:25.735Z,2.73
2018-07-19T23:14:54.588Z,3.10
2018-07-19T23:17:23.503Z,2.70
2018-07-19T23:19:52.384Z,2.50
2018-07-19T23:22:21.291Z,3.03
2018-07-19T23:24:50.167Z,2.57
2018-07-19T23:27:19.087Z,2.50
2018-07-19T23:29:48.031Z,2.90
2018-07-19T23:32:16.907Z,2.63
2018-07-19T23:34:45.852Z,2.77
2018-07-19T23:37:14.719Z,2.90
2018-07-19T23:39:43.803Z,3.13
2018-07-19T23:42:12.777Z,3.57
2018-07-19T23:44:41.863Z,2.90
2018-07-19T23:47:10.945Z,3.27
2018-07-19T23:49:39.836Z,3.47
2018-07-19T23:52:08.674Z,2.80
2018-07-19T23:54:37.584Z,3.60
2018-07-19T23:57:06.547Z,3.03
2018-07-19T23:59:35.422Z,2.73
